sensor_id;sensor_type;location;lat;lon;timestamp;P1;durP1;ratioP1;P2;durP2;ratioP2
25721;SDS011;13578;53.450;15.496;2023-02-19T00:02:14;10.90;;;7.18;;
25721;SDS011;13578;53.450;15.496;2023-02-19T00:05:15;16.88;;;7.72;;
25721;SDS011;13578;53.450;15.496;2023-02-19T00:08:16;22.60;;;8.38;;
25721;SDS011;13578;53.450;15.496;2023-02-19T00:11:17;18.42;;;7.53;;
25721;SDS011;13578;53.450;15.496;2023-02-19T00:14:20;12.80;;;7.90;;
25721;SDS011;13578;53.450;15.496;2023-02-19T00:17:20;15.15;;;7.97;;
25721;SDS011;13578;53.450;15.496;2023-02-19T00:20:21;16.98;;;8.45;;
25721;SDS011;13578;53.450;15.496;2023-02-19T00:23:21;16.00;;;7.97;;
25721;SDS011;13578;53.450;15.496;2023-02-19T00:26:22;30.10;;;10.45;;
25721;SDS011;13578;53.450;15.496;2023-02-19T00:29:23;18.98;;;7.90;;
25721;SDS011;13578;53.450;15.496;2023-02-19T00:32:24;24.25;;;8.32;;
25721;SDS011;13578;53.450;15.496;2023-02-19T00:35:27;31.92;;;11.95;;
25721;SDS011;13578;53.450;15.496;2023-02-19T00:38:27;17.00;;;8.05;;
25721;SDS011;13578;53.450;15.496;2023-02-19T00:41:28;21.85;;;8.57;;
25721;SDS011;13578;53.450;15.496;2023-02-19T00:44:29;13.55;;;7.25;;
25721;SDS011;13578;53.450;15.496;2023-02-19T00:47:30;18.00;;;8.48;;
25721;SDS011;13578;53.450;15.496;2023-02-19T00:50:30;14.70;;;7.15;;
25721;SDS011;13578;53.450;15.496;2023-02-19T00:53:31;19.48;;;8.63;;
25721;SDS011;13578;53.450;15.496;2023-02-19T00:56:31;12.45;;;7.22;;
25721;SDS011;13578;53.450;15.496;2023-02-19T00:59:33;13.73;;;7.85;;
25721;SDS011;13578;53.450;15.496;2023-02-19T01:02:35;15.30;;;8.98;;
25721;SDS011;13578;53.450;15.496;2023-02-19T01:05:36;17.88;;;8.95;;
25721;SDS011;13578;53.450;15.496;2023-02-19T01:08:36;20.20;;;9.05;;
25721;SDS011;13578;53.450;15.496;2023-02-19T01:11:37;17.80;;;9.55;;
25721;SDS011;13578;53.450;15.496;2023-02-19T01:14:38;15.35;;;9.80;;
25721;SDS011;13578;53.450;15.496;2023-02-19T01:17:38;22.73;;;10.60;;
25721;SDS011;13578;53.450;15.496;2023-02-19T01:20:39;27.15;;;11.73;;
25721;SDS011;13578;53.450;15.496;2023-02-19T01:23:42;28.17;;;11.02;;
25721;SDS011;13578;53.450;15.496;2023-02-19T01:26:43;22.73;;;11.52;;
25721;SDS011;13578;53.450;15.496;2023-02-19T01:29:43;20.48;;;10.85;;
25721;SDS011;13578;53.450;15.496;2023-02-19T01:32:44;32.28;;;12.07;;
25721;SDS011;13578;53.450;15.496;2023-02-19T01:35:45;26.27;;;12.05;;
25721;SDS011;13578;53.450;15.496;2023-02-19T01:38:45;36.58;;;13.60;;
25721;SDS011;13578;53.450;15.496;2023-02-19T01:41:46;35.28;;;13.07;;
25721;SDS011;13578;53.450;15.496;2023-02-19T01:47:49;25.40;;;12.38;;
25721;SDS011;13578;53.450;15.496;2023-02-19T01:51:16;39.72;;;13.45;;
25721;SDS011;13578;53.450;15.496;2023-02-19T01:54:19;34.38;;;12.23;;
25721;SDS011;13578;53.450;15.496;2023-02-19T01:57:25;29.05;;;10.38;;
25721;SDS011;13578;53.450;15.496;2023-02-19T02:00:29;32.07;;;9.93;;
25721;SDS011;13578;53.450;15.496;2023-02-19T02:03:33;36.45;;;12.00;;
25721;SDS011;13578;53.450;15.496;2023-02-19T02:06:38;24.33;;;11.98;;
25721;SDS011;13578;53.450;15.496;2023-02-19T02:10:00;21.13;;;8.80;;
25721;SDS011;13578;53.450;15.496;2023-02-19T02:13:20;33.95;;;9.82;;
25721;SDS011;13578;53.450;15.496;2023-02-19T02:16:37;29.83;;;13.18;;
25721;SDS011;13578;53.450;15.496;2023-02-19T02:22:51;17.30;;;9.15;;
25721;SDS011;13578;53.450;15.496;2023-02-19T02:26:20;32.55;;;11.38;;
25721;SDS011;13578;53.450;15.496;2023-02-19T02:33:11;26.40;;;9.75;;
25721;SDS011;13578;53.450;15.496;2023-02-19T02:36:36;19.60;;;9.98;;
25721;SDS011;13578;53.450;15.496;2023-02-19T02:39:39;19.85;;;10.98;;
25721;SDS011;13578;53.450;15.496;2023-02-19T02:42:41;23.65;;;10.55;;
25721;SDS011;13578;53.450;15.496;2023-02-19T02:45:42;22.50;;;9.55;;
25721;SDS011;13578;53.450;15.496;2023-02-19T02:51:53;17.90;;;9.60;;
25721;SDS011;13578;53.450;15.496;2023-02-19T02:54:56;17.48;;;9.02;;
25721;SDS011;13578;53.450;15.496;2023-02-19T02:58:02;22.77;;;8.30;;
25721;SDS011;13578;53.450;15.496;2023-02-19T03:01:11;23.65;;;9.77;;
25721;SDS011;13578;53.450;15.496;2023-02-19T03:04:43;27.00;;;10.05;;
25721;SDS011;13578;53.450;15.496;2023-02-19T03:11:15;29.58;;;10.88;;
25721;SDS011;13578;53.450;15.496;2023-02-19T03:14:39;16.00;;;8.07;;
25721;SDS011;13578;53.450;15.496;2023-02-19T03:18:04;28.60;;;10.65;;
25721;SDS011;13578;53.450;15.496;2023-02-19T03:21:26;19.00;;;9.02;;
25721;SDS011;13578;53.450;15.496;2023-02-19T03:24:29;30.98;;;11.43;;
25721;SDS011;13578;53.450;15.496;2023-02-19T03:27:51;23.52;;;10.57;;
25721;SDS011;13578;53.450;15.496;2023-02-19T03:30:53;18.63;;;9.48;;
25721;SDS011;13578;53.450;15.496;2023-02-19T03:33:56;34.58;;;11.73;;
25721;SDS011;13578;53.450;15.496;2023-02-19T03:37:01;27.33;;;11.43;;
25721;SDS011;13578;53.450;15.496;2023-02-19T03:40:07;25.48;;;10.60;;
25721;SDS011;13578;53.450;15.496;2023-02-19T03:43:13;26.30;;;11.10;;
25721;SDS011;13578;53.450;15.496;2023-02-19T03:56:12;19.95;;;10.07;;
25721;SDS011;13578;53.450;15.496;2023-02-19T03:59:19;42.20;;;14.70;;
25721;SDS011;13578;53.450;15.496;2023-02-19T04:02:31;20.52;;;10.38;;
25721;SDS011;13578;53.450;15.496;2023-02-19T04:05:34;35.80;;;13.65;;
25721;SDS011;13578;53.450;15.496;2023-02-19T04:08:39;33.87;;;13.03;;
25721;SDS011;13578;53.450;15.496;2023-02-19T04:11:43;29.08;;;12.43;;
25721;SDS011;13578;53.450;15.496;2023-02-19T04:17:54;25.08;;;10.27;;
25721;SDS011;13578;53.450;15.496;2023-02-19T04:21:05;26.85;;;10.52;;
25721;SDS011;13578;53.450;15.496;2023-02-19T04:24:11;37.65;;;12.55;;
25721;SDS011;13578;53.450;15.496;2023-02-19T04:27:17;25.77;;;12.20;;
25721;SDS011;13578;53.450;15.496;2023-02-19T04:30:17;30.55;;;12.73;;
25721;SDS011;13578;53.450;15.496;2023-02-19T04:33:18;23.52;;;10.15;;
25721;SDS011;13578;53.450;15.496;2023-02-19T04:36:19;22.08;;;11.88;;
25721;SDS011;13578;53.450;15.496;2023-02-19T04:39:19;24.52;;;10.00;;
25721;SDS011;13578;53.450;15.496;2023-02-19T04:42:20;26.67;;;13.15;;
25721;SDS011;13578;53.450;15.496;2023-02-19T04:45:20;33.33;;;12.40;;
25721;SDS011;13578;53.450;15.496;2023-02-19T04:48:21;24.17;;;12.50;;
25721;SDS011;13578;53.450;15.496;2023-02-19T04:51:22;21.77;;;10.02;;
25721;SDS011;13578;53.450;15.496;2023-02-19T04:54:22;37.15;;;11.07;;
25721;SDS011;13578;53.450;15.496;2023-02-19T04:57:23;22.13;;;10.82;;
25721;SDS011;13578;53.450;15.496;2023-02-19T05:00:24;25.50;;;10.30;;
25721;SDS011;13578;53.450;15.496;2023-02-19T05:03:24;24.40;;;9.27;;
25721;SDS011;13578;53.450;15.496;2023-02-19T05:06:25;29.95;;;9.82;;
25721;SDS011;13578;53.450;15.496;2023-02-19T05:09:26;17.50;;;8.80;;
25721;SDS011;13578;53.450;15.496;2023-02-19T05:12:28;23.45;;;9.57;;
25721;SDS011;13578;53.450;15.496;2023-02-19T05:15:29;20.20;;;9.38;;
25721;SDS011;13578;53.450;15.496;2023-02-19T05:18:30;29.33;;;9.85;;
25721;SDS011;13578;53.450;15.496;2023-02-19T05:21:31;24.92;;;9.88;;
25721;SDS011;13578;53.450;15.496;2023-02-19T05:24:32;22.67;;;10.18;;
25721;SDS011;13578;53.450;15.496;2023-02-19T05:27:32;18.38;;;8.80;;
25721;SDS011;13578;53.450;15.496;2023-02-19T05:30:34;22.38;;;8.95;;
25721;SDS011;13578;53.450;15.496;2023-02-19T05:33:34;18.63;;;8.65;;
25721;SDS011;13578;53.450;15.496;2023-02-19T05:36:36;26.88;;;8.85;;
25721;SDS011;13578;53.450;15.496;2023-02-19T05:39:37;23.60;;;8.75;;
25721;SDS011;13578;53.450;15.496;2023-02-19T05:42:38;26.35;;;8.57;;
25721;SDS011;13578;53.450;15.496;2023-02-19T05:45:39;19.77;;;7.40;;
25721;SDS011;13578;53.450;15.496;2023-02-19T05:48:40;22.70;;;8.45;;
25721;SDS011;13578;53.450;15.496;2023-02-19T05:51:41;19.73;;;8.15;;
25721;SDS011;13578;53.450;15.496;2023-02-19T05:54:42;13.18;;;8.32;;
25721;SDS011;13578;53.450;15.496;2023-02-19T05:57:43;13.75;;;7.15;;
25721;SDS011;13578;53.450;15.496;2023-02-19T06:00:45;17.77;;;8.48;;
25721;SDS011;13578;53.450;15.496;2023-02-19T06:03:46;10.07;;;7.28;;
25721;SDS011;13578;53.450;15.496;2023-02-19T06:06:47;19.88;;;8.38;;
25721;SDS011;13578;53.450;15.496;2023-02-19T06:09:50;18.15;;;6.82;;
25721;SDS011;13578;53.450;15.496;2023-02-19T06:12:52;7.40;;;5.25;;
25721;SDS011;13578;53.450;15.496;2023-02-19T06:15:53;18.95;;;7.28;;
25721;SDS011;13578;53.450;15.496;2023-02-19T06:18:54;14.13;;;6.90;;
25721;SDS011;13578;53.450;15.496;2023-02-19T06:21:54;17.17;;;6.93;;
25721;SDS011;13578;53.450;15.496;2023-02-19T06:24:55;23.25;;;6.80;;
25721;SDS011;13578;53.450;15.496;2023-02-19T06:27:55;17.27;;;7.40;;
25721;SDS011;13578;53.450;15.496;2023-02-19T06:30:57;22.20;;;7.25;;
25721;SDS011;13578;53.450;15.496;2023-02-19T06:33:58;23.48;;;7.68;;
25721;SDS011;13578;53.450;15.496;2023-02-19T06:36:58;18.92;;;7.20;;
25721;SDS011;13578;53.450;15.496;2023-02-19T06:40:00;12.90;;;7.43;;
25721;SDS011;13578;53.450;15.496;2023-02-19T06:43:00;23.58;;;6.90;;
25721;SDS011;13578;53.450;15.496;2023-02-19T06:46:01;16.58;;;6.93;;
25721;SDS011;13578;53.450;15.496;2023-02-19T06:49:04;7.22;;;4.88;;
25721;SDS011;13578;53.450;15.496;2023-02-19T06:52:05;20.73;;;7.53;;
25721;SDS011;13578;53.450;15.496;2023-02-19T06:55:05;16.98;;;6.15;;
25721;SDS011;13578;53.450;15.496;2023-02-19T06:58:06;28.75;;;8.38;;
25721;SDS011;13578;53.450;15.496;2023-02-19T07:01:09;23.45;;;7.88;;
25721;SDS011;13578;53.450;15.496;2023-02-19T07:04:10;11.77;;;7.30;;
25721;SDS011;13578;53.450;15.496;2023-02-19T07:07:11;17.80;;;7.15;;
25721;SDS011;13578;53.450;15.496;2023-02-19T07:10:11;15.57;;;7.03;;
25721;SDS011;13578;53.450;15.496;2023-02-19T07:13:12;11.90;;;5.72;;
25721;SDS011;13578;53.450;15.496;2023-02-19T07:16:13;15.43;;;7.13;;
25721;SDS011;13578;53.450;15.496;2023-02-19T07:19:14;15.35;;;6.32;;
25721;SDS011;13578;53.450;15.496;2023-02-19T07:22:15;24.98;;;7.50;;
25721;SDS011;13578;53.450;15.496;2023-02-19T07:25:16;12.45;;;6.75;;
25721;SDS011;13578;53.450;15.496;2023-02-19T07:28:16;11.20;;;6.43;;
25721;SDS011;13578;53.450;15.496;2023-02-19T07:31:18;22.27;;;7.00;;
25721;SDS011;13578;53.450;15.496;2023-02-19T07:34:20;17.25;;;6.43;;
25721;SDS011;13578;53.450;15.496;2023-02-19T07:37:21;21.15;;;6.35;;
25721;SDS011;13578;53.450;15.496;2023-02-19T07:40:21;18.02;;;7.00;;
25721;SDS011;13578;53.450;15.496;2023-02-19T07:43:25;24.08;;;6.65;;
25721;SDS011;13578;53.450;15.496;2023-02-19T07:46:28;15.32;;;6.70;;
25721;SDS011;13578;53.450;15.496;2023-02-19T07:49:29;16.13;;;6.30;;
25721;SDS011;13578;53.450;15.496;2023-02-19T07:52:29;14.73;;;5.88;;
25721;SDS011;13578;53.450;15.496;2023-02-19T07:55:30;14.50;;;6.88;;
25721;SDS011;13578;53.450;15.496;2023-02-19T07:58:32;38.10;;;17.58;;
25721;SDS011;13578;53.450;15.496;2023-02-19T08:01:33;23.35;;;10.48;;
25721;SDS011;13578;53.450;15.496;2023-02-19T08:04:53;9.80;;;5.57;;
25721;SDS011;13578;53.450;15.496;2023-02-19T08:07:53;21.85;;;6.80;;
25721;SDS011;13578;53.450;15.496;2023-02-19T08:10:54;22.25;;;7.97;;
25721;SDS011;13578;53.450;15.496;2023-02-19T08:14:13;9.88;;;5.70;;
25721;SDS011;13578;53.450;15.496;2023-02-19T08:17:13;7.97;;;5.13;;
25721;SDS011;13578;53.450;15.496;2023-02-19T08:20:14;17.05;;;5.88;;
25721;SDS011;13578;53.450;15.496;2023-02-19T08:23:15;12.98;;;5.85;;
25721;SDS011;13578;53.450;15.496;2023-02-19T08:26:16;17.67;;;7.03;;
25721;SDS011;13578;53.450;15.496;2023-02-19T08:29:17;14.70;;;6.70;;
25721;SDS011;13578;53.450;15.496;2023-02-19T08:32:17;21.40;;;5.85;;
25721;SDS011;13578;53.450;15.496;2023-02-19T08:35:18;13.27;;;5.38;;
25721;SDS011;13578;53.450;15.496;2023-02-19T08:38:18;8.55;;;6.88;;
25721;SDS011;13578;53.450;15.496;2023-02-19T08:41:19;9.05;;;5.20;;
25721;SDS011;13578;53.450;15.496;2023-02-19T08:44:20;4.75;;;4.30;;
25721;SDS011;13578;53.450;15.496;2023-02-19T08:47:21;20.50;;;5.65;;
25721;SDS011;13578;53.450;15.496;2023-02-19T08:50:22;13.30;;;6.38;;
25721;SDS011;13578;53.450;15.496;2023-02-19T08:53:23;13.90;;;5.72;;
25721;SDS011;13578;53.450;15.496;2023-02-19T08:56:24;20.15;;;5.32;;
25721;SDS011;13578;53.450;15.496;2023-02-19T08:59:24;17.83;;;4.85;;
25721;SDS011;13578;53.450;15.496;2023-02-19T09:02:28;10.85;;;4.47;;
25721;SDS011;13578;53.450;15.496;2023-02-19T09:05:29;10.70;;;4.30;;
25721;SDS011;13578;53.450;15.496;2023-02-19T09:08:29;19.48;;;6.43;;
25721;SDS011;13578;53.450;15.496;2023-02-19T09:11:30;18.58;;;5.45;;
25721;SDS011;13578;53.450;15.496;2023-02-19T09:14:31;12.52;;;4.95;;
25721;SDS011;13578;53.450;15.496;2023-02-19T09:17:33;16.83;;;6.07;;
25721;SDS011;13578;53.450;15.496;2023-02-19T09:20:34;10.88;;;5.20;;
25721;SDS011;13578;53.450;15.496;2023-02-19T09:23:35;6.45;;;4.53;;
25721;SDS011;13578;53.450;15.496;2023-02-19T09:26:36;13.45;;;6.10;;
25721;SDS011;13578;53.450;15.496;2023-02-19T09:29:36;4.95;;;4.38;;
25721;SDS011;13578;53.450;15.496;2023-02-19T09:32:37;6.47;;;4.47;;
25721;SDS011;13578;53.450;15.496;2023-02-19T09:35:38;6.22;;;4.47;;
25721;SDS011;13578;53.450;15.496;2023-02-19T09:38:39;9.50;;;4.05;;
25721;SDS011;13578;53.450;15.496;2023-02-19T09:44:58;6.68;;;3.65;;
25721;SDS011;13578;53.450;15.496;2023-02-19T09:48:00;8.43;;;5.07;;
25721;SDS011;13578;53.450;15.496;2023-02-19T09:51:02;10.02;;;3.95;;
25721;SDS011;13578;53.450;15.496;2023-02-19T09:54:03;9.40;;;3.88;;
25721;SDS011;13578;53.450;15.496;2023-02-19T09:57:14;13.57;;;5.80;;
25721;SDS011;13578;53.450;15.496;2023-02-19T10:00:24;9.48;;;4.28;;
25721;SDS011;13578;53.450;15.496;2023-02-19T10:03:27;14.82;;;5.03;;
25721;SDS011;13578;53.450;15.496;2023-02-19T10:06:33;14.93;;;4.40;;
25721;SDS011;13578;53.450;15.496;2023-02-19T10:09:35;14.18;;;5.22;;
25721;SDS011;13578;53.450;15.496;2023-02-19T10:12:37;7.60;;;5.15;;
25721;SDS011;13578;53.450;15.496;2023-02-19T10:15:57;5.60;;;4.10;;
25721;SDS011;13578;53.450;15.496;2023-02-19T10:19:01;5.20;;;3.67;;
25721;SDS011;13578;53.450;15.496;2023-02-19T10:22:02;11.73;;;4.32;;
25721;SDS011;13578;53.450;15.496;2023-02-19T10:25:03;3.90;;;3.40;;
25721;SDS011;13578;53.450;15.496;2023-02-19T10:28:05;15.85;;;3.95;;
25721;SDS011;13578;53.450;15.496;2023-02-19T10:31:20;10.88;;;4.60;;
25721;SDS011;13578;53.450;15.496;2023-02-19T10:34:23;11.10;;;4.57;;
25721;SDS011;13578;53.450;15.496;2023-02-19T10:37:23;5.57;;;4.28;;
25721;SDS011;13578;53.450;15.496;2023-02-19T10:40:25;4.50;;;3.47;;
25721;SDS011;13578;53.450;15.496;2023-02-19T10:43:28;4.88;;;3.97;;
25721;SDS011;13578;53.450;15.496;2023-02-19T10:46:36;4.05;;;3.42;;
25721;SDS011;13578;53.450;15.496;2023-02-19T10:49:42;7.38;;;3.50;;
25721;SDS011;13578;53.450;15.496;2023-02-19T10:52:45;6.03;;;3.72;;
25721;SDS011;13578;53.450;15.496;2023-02-19T10:59:32;9.90;;;3.58;;
25721;SDS011;13578;53.450;15.496;2023-02-19T11:02:33;8.55;;;4.22;;
25721;SDS011;13578;53.450;15.496;2023-02-19T11:05:33;4.63;;;4.03;;
25721;SDS011;13578;53.450;15.496;2023-02-19T11:08:55;18.33;;;5.53;;
25721;SDS011;13578;53.450;15.496;2023-02-19T11:11:57;12.50;;;4.65;;
25721;SDS011;13578;53.450;15.496;2023-02-19T11:15:40;5.30;;;3.63;;
25721;SDS011;13578;53.450;15.496;2023-02-19T11:18:31;17.90;;;4.00;;
25721;SDS011;13578;53.450;15.496;2023-02-19T11:21:34;4.72;;;3.92;;
25721;SDS011;13578;53.450;15.496;2023-02-19T11:24:38;6.55;;;3.95;;
25721;SDS011;13578;53.450;15.496;2023-02-19T11:31:13;6.43;;;3.83;;
25721;SDS011;13578;53.450;15.496;2023-02-19T11:34:27;3.13;;;2.83;;
25721;SDS011;13578;53.450;15.496;2023-02-19T11:37:29;13.48;;;4.57;;
25721;SDS011;13578;53.450;15.496;2023-02-19T11:47:19;4.30;;;3.03;;
25721;SDS011;13578;53.450;15.496;2023-02-19T11:57:23;3.08;;;2.88;;
25721;SDS011;13578;53.450;15.496;2023-02-19T12:00:29;5.05;;;3.97;;
25721;SDS011;13578;53.450;15.496;2023-02-19T12:07:27;5.25;;;3.20;;
25721;SDS011;13578;53.450;15.496;2023-02-19T12:10:42;8.98;;;3.40;;
25721;SDS011;13578;53.450;15.496;2023-02-19T12:14:35;8.88;;;3.22;;
25721;SDS011;13578;53.450;15.496;2023-02-19T12:31:20;11.05;;;3.40;;
25721;SDS011;13578;53.450;15.496;2023-02-19T12:44:54;3.83;;;3.53;;
25721;SDS011;13578;53.450;15.496;2023-02-19T12:51:14;6.03;;;3.00;;
25721;SDS011;13578;53.450;15.496;2023-02-19T12:54:39;3.38;;;3.08;;
25721;SDS011;13578;53.450;15.496;2023-02-19T12:57:42;8.15;;;3.45;;
25721;SDS011;13578;53.450;15.496;2023-02-19T13:00:43;10.13;;;3.63;;
25721;SDS011;13578;53.450;15.496;2023-02-19T13:03:57;3.08;;;2.83;;
25721;SDS011;13578;53.450;15.496;2023-02-19T13:07:29;7.78;;;3.95;;
25721;SDS011;13578;53.450;15.496;2023-02-19T13:10:40;5.10;;;3.20;;
25721;SDS011;13578;53.450;15.496;2023-02-19T13:13:51;9.20;;;3.10;;
25721;SDS011;13578;53.450;15.496;2023-02-19T13:20:38;8.38;;;3.08;;
25721;SDS011;13578;53.450;15.496;2023-02-19T13:23:41;8.15;;;3.05;;
25721;SDS011;13578;53.450;15.496;2023-02-19T13:27:11;5.28;;;3.15;;
25721;SDS011;13578;53.450;15.496;2023-02-19T13:31:00;2.90;;;2.70;;
25721;SDS011;13578;53.450;15.496;2023-02-19T13:34:09;9.32;;;3.72;;
25721;SDS011;13578;53.450;15.496;2023-02-19T13:37:32;6.68;;;3.63;;
25721;SDS011;13578;53.450;15.496;2023-02-19T13:40:35;12.55;;;4.13;;
25721;SDS011;13578;53.450;15.496;2023-02-19T13:43:38;3.90;;;3.50;;
25721;SDS011;13578;53.450;15.496;2023-02-19T13:46:42;6.40;;;3.88;;
25721;SDS011;13578;53.450;15.496;2023-02-19T13:49:47;7.53;;;3.83;;
25721;SDS011;13578;53.450;15.496;2023-02-19T13:52:48;14.82;;;6.40;;
25721;SDS011;13578;53.450;15.496;2023-02-19T13:55:50;13.18;;;4.20;;
25721;SDS011;13578;53.450;15.496;2023-02-19T13:58:52;8.95;;;4.40;;
25721;SDS011;13578;53.450;15.496;2023-02-19T14:05:01;6.25;;;4.53;;
25721;SDS011;13578;53.450;15.496;2023-02-19T14:08:08;7.47;;;4.05;;
25721;SDS011;13578;53.450;15.496;2023-02-19T14:11:09;6.85;;;3.70;;
25721;SDS011;13578;53.450;15.496;2023-02-19T14:17:42;5.50;;;3.35;;
25721;SDS011;13578;53.450;15.496;2023-02-19T14:20:47;3.47;;;3.25;;
25721;SDS011;13578;53.450;15.496;2023-02-19T14:23:54;9.75;;;4.18;;
25721;SDS011;13578;53.450;15.496;2023-02-19T14:26:57;3.97;;;3.63;;
25721;SDS011;13578;53.450;15.496;2023-02-19T14:29:59;3.75;;;3.38;;
25721;SDS011;13578;53.450;15.496;2023-02-19T14:33:01;6.22;;;3.45;;
25721;SDS011;13578;53.450;15.496;2023-02-19T14:39:16;3.55;;;3.35;;
25721;SDS011;13578;53.450;15.496;2023-02-19T14:42:39;11.57;;;4.13;;
25721;SDS011;13578;53.450;15.496;2023-02-19T14:45:41;6.13;;;4.00;;
25721;SDS011;13578;53.450;15.496;2023-02-19T14:48:47;13.55;;;4.15;;
25721;SDS011;13578;53.450;15.496;2023-02-19T14:51:49;3.58;;;3.17;;
25721;SDS011;13578;53.450;15.496;2023-02-19T14:54:59;3.72;;;3.42;;
25721;SDS011;13578;53.450;15.496;2023-02-19T14:58:16;6.25;;;3.90;;
25721;SDS011;13578;53.450;15.496;2023-02-19T15:04:27;17.05;;;4.47;;
25721;SDS011;13578;53.450;15.496;2023-02-19T15:07:34;5.95;;;4.30;;
25721;SDS011;13578;53.450;15.496;2023-02-19T15:10:35;4.10;;;3.63;;
25721;SDS011;13578;53.450;15.496;2023-02-19T15:13:37;5.75;;;3.97;;
25721;SDS011;13578;53.450;15.496;2023-02-19T15:16:44;7.88;;;5.20;;
25721;SDS011;13578;53.450;15.496;2023-02-19T15:19:45;7.05;;;5.07;;
25721;SDS011;13578;53.450;15.496;2023-02-19T15:22:46;7.22;;;3.65;;
25721;SDS011;13578;53.450;15.496;2023-02-19T15:25:48;5.88;;;3.72;;
25721;SDS011;13578;53.450;15.496;2023-02-19T15:29:00;4.53;;;3.33;;
25721;SDS011;13578;53.450;15.496;2023-02-19T15:32:12;5.68;;;3.85;;
25721;SDS011;13578;53.450;15.496;2023-02-19T15:35:20;10.30;;;4.55;;
25721;SDS011;13578;53.450;15.496;2023-02-19T15:38:24;4.65;;;3.55;;
25721;SDS011;13578;53.450;15.496;2023-02-19T15:41:25;4.25;;;3.85;;
25721;SDS011;13578;53.450;15.496;2023-02-19T15:47:44;3.72;;;3.42;;
25721;SDS011;13578;53.450;15.496;2023-02-19T15:51:00;6.22;;;5.68;;
25721;SDS011;13578;53.450;15.496;2023-02-19T15:54:13;3.95;;;3.58;;
25721;SDS011;13578;53.450;15.496;2023-02-19T15:57:29;4.35;;;3.75;;
25721;SDS011;13578;53.450;15.496;2023-02-19T16:00:44;4.57;;;4.15;;
25721;SDS011;13578;53.450;15.496;2023-02-19T16:03:54;9.63;;;5.03;;
25721;SDS011;13578;53.450;15.496;2023-02-19T16:06:56;7.63;;;4.80;;
25721;SDS011;13578;53.450;15.496;2023-02-19T16:13:26;8.88;;;5.43;;
25721;SDS011;13578;53.450;15.496;2023-02-19T16:16:29;8.65;;;4.65;;
25721;SDS011;13578;53.450;15.496;2023-02-19T16:19:54;6.47;;;4.88;;
25721;SDS011;13578;53.450;15.496;2023-02-19T16:26:00;4.65;;;4.18;;
25721;SDS011;13578;53.450;15.496;2023-02-19T16:29:02;8.82;;;4.47;;
25721;SDS011;13578;53.450;15.496;2023-02-19T16:32:04;8.45;;;4.55;;
25721;SDS011;13578;53.450;15.496;2023-02-19T16:35:33;10.35;;;4.88;;
25721;SDS011;13578;53.450;15.496;2023-02-19T16:38:37;13.55;;;6.10;;
25721;SDS011;13578;53.450;15.496;2023-02-19T16:44:47;10.40;;;5.80;;
25721;SDS011;13578;53.450;15.496;2023-02-19T16:47:47;10.20;;;5.20;;
25721;SDS011;13578;53.450;15.496;2023-02-19T16:50:50;8.10;;;4.93;;
25721;SDS011;13578;53.450;15.496;2023-02-19T16:53:50;7.38;;;4.93;;
25721;SDS011;13578;53.450;15.496;2023-02-19T16:56:51;10.65;;;4.88;;
25721;SDS011;13578;53.450;15.496;2023-02-19T16:59:52;5.13;;;4.57;;
25721;SDS011;13578;53.450;15.496;2023-02-19T17:03:00;6.63;;;4.57;;
25721;SDS011;13578;53.450;15.496;2023-02-19T17:06:07;8.55;;;4.82;;
25721;SDS011;13578;53.450;15.496;2023-02-19T17:09:08;8.98;;;5.57;;
25721;SDS011;13578;53.450;15.496;2023-02-19T17:12:10;9.45;;;4.93;;
25721;SDS011;13578;53.450;15.496;2023-02-19T17:15:11;8.18;;;3.75;;
25721;SDS011;13578;53.450;15.496;2023-02-19T17:18:12;7.05;;;4.63;;
25721;SDS011;13578;53.450;15.496;2023-02-19T17:21:23;9.85;;;4.78;;
25721;SDS011;13578;53.450;15.496;2023-02-19T17:24:25;6.65;;;4.63;;
25721;SDS011;13578;53.450;15.496;2023-02-19T17:27:25;8.02;;;4.78;;
25721;SDS011;13578;53.450;15.496;2023-02-19T17:30:27;6.18;;;4.57;;
25721;SDS011;13578;53.450;15.496;2023-02-19T17:33:30;11.90;;;5.57;;
25721;SDS011;13578;53.450;15.496;2023-02-19T17:36:30;6.53;;;5.53;;
25721;SDS011;13578;53.450;15.496;2023-02-19T17:39:31;8.55;;;5.55;;
25721;SDS011;13578;53.450;15.496;2023-02-19T17:42:32;11.30;;;5.93;;
25721;SDS011;13578;53.450;15.496;2023-02-19T17:45:32;7.63;;;5.95;;
25721;SDS011;13578;53.450;15.496;2023-02-19T17:48:33;8.50;;;5.65;;
25721;SDS011;13578;53.450;15.496;2023-02-19T17:51:34;9.38;;;6.10;;
25721;SDS011;13578;53.450;15.496;2023-02-19T17:54:37;9.95;;;6.70;;
25721;SDS011;13578;53.450;15.496;2023-02-19T17:57:37;10.05;;;5.78;;
25721;SDS011;13578;53.450;15.496;2023-02-19T18:00:38;6.90;;;5.10;;
25721;SDS011;13578;53.450;15.496;2023-02-19T18:03:39;10.27;;;6.20;;
25721;SDS011;13578;53.450;15.496;2023-02-19T18:06:39;8.73;;;6.22;;
25721;SDS011;13578;53.450;15.496;2023-02-19T18:09:41;11.60;;;5.63;;
25721;SDS011;13578;53.450;15.496;2023-02-19T18:12:42;6.95;;;5.30;;
25721;SDS011;13578;53.450;15.496;2023-02-19T18:15:43;11.05;;;5.15;;
25721;SDS011;13578;53.450;15.496;2023-02-19T18:18:43;9.80;;;5.45;;
25721;SDS011;13578;53.450;15.496;2023-02-19T18:21:44;10.30;;;5.05;;
25721;SDS011;13578;53.450;15.496;2023-02-19T18:24:48;12.25;;;7.35;;
25721;SDS011;13578;53.450;15.496;2023-02-19T18:27:50;19.73;;;5.53;;
25721;SDS011;13578;53.450;15.496;2023-02-19T18:30:51;8.88;;;5.60;;
25721;SDS011;13578;53.450;15.496;2023-02-19T18:33:51;7.47;;;5.55;;
25721;SDS011;13578;53.450;15.496;2023-02-19T18:36:52;11.02;;;5.22;;
25721;SDS011;13578;53.450;15.496;2023-02-19T18:39:53;7.22;;;5.50;;
25721;SDS011;13578;53.450;15.496;2023-02-19T18:42:53;4.53;;;4.13;;
25721;SDS011;13578;53.450;15.496;2023-02-19T18:45:54;13.05;;;5.30;;
25721;SDS011;13578;53.450;15.496;2023-02-19T18:48:55;7.75;;;5.05;;
25721;SDS011;13578;53.450;15.496;2023-02-19T18:51:55;8.70;;;4.15;;
25721;SDS011;13578;53.450;15.496;2023-02-19T18:54:58;8.63;;;5.78;;
25721;SDS011;13578;53.450;15.496;2023-02-19T18:57:59;9.32;;;4.43;;
25721;SDS011;13578;53.450;15.496;2023-02-19T19:01:00;7.20;;;4.43;;
25721;SDS011;13578;53.450;15.496;2023-02-19T19:04:00;10.98;;;5.00;;
25721;SDS011;13578;53.450;15.496;2023-02-19T19:07:02;11.63;;;5.38;;
25721;SDS011;13578;53.450;15.496;2023-02-19T19:10:03;5.80;;;5.28;;
25721;SDS011;13578;53.450;15.496;2023-02-19T19:13:05;6.82;;;5.15;;
25721;SDS011;13578;53.450;15.496;2023-02-19T19:16:05;5.03;;;4.63;;
25721;SDS011;13578;53.450;15.496;2023-02-19T19:19:06;10.45;;;5.88;;
25721;SDS011;13578;53.450;15.496;2023-02-19T19:22:06;9.02;;;5.68;;
25721;SDS011;13578;53.450;15.496;2023-02-19T19:25:07;7.50;;;4.95;;
25721;SDS011;13578;53.450;15.496;2023-02-19T19:28:08;7.70;;;5.03;;
25721;SDS011;13578;53.450;15.496;2023-02-19T19:31:13;9.73;;;4.45;;
25721;SDS011;13578;53.450;15.496;2023-02-19T19:34:14;6.38;;;4.82;;
25721;SDS011;13578;53.450;15.496;2023-02-19T19:37:15;12.10;;;5.55;;
25721;SDS011;13578;53.450;15.496;2023-02-19T19:40:16;9.45;;;5.22;;
25721;SDS011;13578;53.450;15.496;2023-02-19T19:43:17;5.38;;;4.88;;
25721;SDS011;13578;53.450;15.496;2023-02-19T19:46:18;10.13;;;5.78;;
25721;SDS011;13578;53.450;15.496;2023-02-19T19:49:20;8.95;;;4.70;;
25721;SDS011;13578;53.450;15.496;2023-02-19T19:52:21;9.13;;;5.20;;
25721;SDS011;13578;53.450;15.496;2023-02-19T19:55:22;12.77;;;5.65;;
25721;SDS011;13578;53.450;15.496;2023-02-19T19:58:23;14.55;;;5.78;;